sensor_id;sensor_type;location;lat;lon;timestamp;P1;durP1;ratioP1;P2;durP2;ratioP2
11006;SDS011;8186;57.652;11.968;2023-05-21T00:00:28;7.50;;;5.80;;
11006;SDS011;8186;57.652;11.968;2023-05-21T00:02:55;7.03;;;5.60;;
11006;SDS011;8186;57.652;11.968;2023-05-21T00:05:23;7.67;;;5.53;;
11006;SDS011;8186;57.652;11.968;2023-05-21T00:07:50;6.47;;;5.20;;
11006;SDS011;8186;57.652;11.968;2023-05-21T00:10:20;6.13;;;5.17;;
11006;SDS011;8186;57.652;11.968;2023-05-21T00:12:47;6.47;;;5.23;;
11006;SDS011;8186;57.652;11.968;2023-05-21T00:15:14;7.50;;;4.83;;
11006;SDS011;8186;57.652;11.968;2023-05-21T00:17:41;8.90;;;5.77;;
11006;SDS011;8186;57.652;11.968;2023-05-21T00:20:10;6.33;;;5.67;;
11006;SDS011;8186;57.652;11.968;2023-05-21T00:22:37;6.27;;;5.67;;
11006;SDS011;8186;57.652;11.968;2023-05-21T00:25:06;6.23;;;5.60;;
11006;SDS011;8186;57.652;11.968;2023-05-21T00:27:35;8.60;;;6.17;;
11006;SDS011;8186;57.652;11.968;2023-05-21T00:30:02;5.70;;;4.90;;
11006;SDS011;8186;57.652;11.968;2023-05-21T00:32:29;6.87;;;5.20;;
11006;SDS011;8186;57.652;11.968;2023-05-21T00:34:56;5.93;;;5.17;;
11006;SDS011;8186;57.652;11.968;2023-05-21T00:37:23;5.90;;;5.17;;
11006;SDS011;8186;57.652;11.968;2023-05-21T00:39:50;14.27;;;5.63;;
11006;SDS011;8186;57.652;11.968;2023-05-21T00:42:17;5.87;;;5.33;;
11006;SDS011;8186;57.652;11.968;2023-05-21T00:44:45;6.67;;;5.87;;
11006;SDS011;8186;57.652;11.968;2023-05-21T00:47:13;6.33;;;5.40;;
11006;SDS011;8186;57.652;11.968;2023-05-21T00:49:42;6.20;;;5.27;;
11006;SDS011;8186;57.652;11.968;2023-05-21T00:52:09;5.77;;;5.13;;
11006;SDS011;8186;57.652;11.968;2023-05-21T00:54:36;5.70;;;5.17;;
11006;SDS011;8186;57.652;11.968;2023-05-21T00:57:03;6.80;;;5.00;;
11006;SDS011;8186;57.652;11.968;2023-05-21T00:59:31;6.20;;;5.53;;
11006;SDS011;8186;57.652;11.968;2023-05-21T01:02:00;5.23;;;4.73;;
11006;SDS011;8186;57.652;11.968;2023-05-21T01:04:29;6.77;;;5.20;;
11006;SDS011;8186;57.652;11.968;2023-05-21T01:06:57;8.33;;;5.40;;
11006;SDS011;8186;57.652;11.968;2023-05-21T01:09:24;7.27;;;5.20;;
11006;SDS011;8186;57.652;11.968;2023-05-21T01:11:53;5.77;;;4.93;;
11006;SDS011;8186;57.652;11.968;2023-05-21T01:14:21;7.40;;;4.87;;
11006;SDS011;8186;57.652;11.968;2023-05-21T01:16:48;7.30;;;5.50;;
11006;SDS011;8186;57.652;11.968;2023-05-21T01:19:18;5.30;;;4.60;;
11006;SDS011;8186;57.652;11.968;2023-05-21T01:21:51;5.27;;;4.77;;
11006;SDS011;8186;57.652;11.968;2023-05-21T01:24:22;5.63;;;5.03;;
11006;SDS011;8186;57.652;11.968;2023-05-21T01:26:49;5.30;;;4.73;;
11006;SDS011;8186;57.652;11.968;2023-05-21T01:29:16;5.73;;;5.13;;
11006;SDS011;8186;57.652;11.968;2023-05-21T01:31:52;7.30;;;4.63;;
11006;SDS011;8186;57.652;11.968;2023-05-21T01:34:25;6.10;;;4.37;;
11006;SDS011;8186;57.652;11.968;2023-05-21T01:36:58;7.83;;;4.50;;
11006;SDS011;8186;57.652;11.968;2023-05-21T01:39:31;7.53;;;4.73;;
11006;SDS011;8186;57.652;11.968;2023-05-21T01:42:01;4.97;;;4.47;;
11006;SDS011;8186;57.652;11.968;2023-05-21T01:44:29;5.70;;;4.80;;
11006;SDS011;8186;57.652;11.968;2023-05-21T01:46:56;5.70;;;4.43;;
11006;SDS011;8186;57.652;11.968;2023-05-21T01:49:24;6.60;;;4.73;;
11006;SDS011;8186;57.652;11.968;2023-05-21T01:51:51;5.47;;;4.97;;
11006;SDS011;8186;57.652;11.968;2023-05-21T01:54:18;5.50;;;4.80;;
11006;SDS011;8186;57.652;11.968;2023-05-21T01:56:47;6.97;;;4.90;;
11006;SDS011;8186;57.652;11.968;2023-05-21T01:59:15;5.10;;;4.60;;
11006;SDS011;8186;57.652;11.968;2023-05-21T02:01:42;6.57;;;5.13;;
11006;SDS011;8186;57.652;11.968;2023-05-21T02:04:09;6.93;;;5.63;;
11006;SDS011;8186;57.652;11.968;2023-05-21T02:06:37;5.80;;;5.27;;
11006;SDS011;8186;57.652;11.968;2023-05-21T02:09:05;7.03;;;5.40;;
11006;SDS011;8186;57.652;11.968;2023-05-21T02:11:33;7.60;;;5.00;;
11006;SDS011;8186;57.652;11.968;2023-05-21T02:14:02;6.17;;;5.40;;
11006;SDS011;8186;57.652;11.968;2023-05-21T02:16:29;8.30;;;5.50;;
11006;SDS011;8186;57.652;11.968;2023-05-21T02:18:56;6.10;;;5.40;;
11006;SDS011;8186;57.652;11.968;2023-05-21T02:21:24;6.00;;;4.97;;
11006;SDS011;8186;57.652;11.968;2023-05-21T02:23:51;5.87;;;5.27;;
11006;SDS011;8186;57.652;11.968;2023-05-21T02:26:18;5.30;;;4.80;;
11006;SDS011;8186;57.652;11.968;2023-05-21T02:28:46;6.57;;;5.57;;
11006;SDS011;8186;57.652;11.968;2023-05-21T02:31:15;5.70;;;5.20;;
11006;SDS011;8186;57.652;11.968;2023-05-21T02:33:42;6.83;;;5.80;;
11006;SDS011;8186;57.652;11.968;2023-05-21T02:36:09;6.47;;;5.40;;
11006;SDS011;8186;57.652;11.968;2023-05-21T02:38:39;5.87;;;5.37;;
11006;SDS011;8186;57.652;11.968;2023-05-21T02:41:07;5.80;;;5.20;;
11006;SDS011;8186;57.652;11.968;2023-05-21T02:43:36;7.43;;;5.33;;
11006;SDS011;8186;57.652;11.968;2023-05-21T02:46:04;8.47;;;5.30;;
11006;SDS011;8186;57.652;11.968;2023-05-21T02:48:33;6.10;;;5.40;;
11006;SDS011;8186;57.652;11.968;2023-05-21T02:51:00;6.33;;;5.40;;
11006;SDS011;8186;57.652;11.968;2023-05-21T02:53:27;5.10;;;4.60;;
11006;SDS011;8186;57.652;11.968;2023-05-21T02:55:54;6.37;;;5.17;;
11006;SDS011;8186;57.652;11.968;2023-05-21T02:58:21;8.17;;;5.10;;
11006;SDS011;8186;57.652;11.968;2023-05-21T03:00:49;7.17;;;5.17;;
11006;SDS011;8186;57.652;11.968;2023-05-21T03:03:16;6.20;;;5.60;;
11006;SDS011;8186;57.652;11.968;2023-05-21T03:05:45;5.90;;;5.30;;
11006;SDS011;8186;57.652;11.968;2023-05-21T03:08:12;6.60;;;4.93;;
11006;SDS011;8186;57.652;11.968;2023-05-21T03:10:39;8.27;;;5.57;;
11006;SDS011;8186;57.652;11.968;2023-05-21T03:13:06;5.80;;;5.30;;
11006;SDS011;8186;57.652;11.968;2023-05-21T03:15:33;7.13;;;4.77;;
11006;SDS011;8186;57.652;11.968;2023-05-21T03:18:00;5.50;;;5.00;;
11006;SDS011;8186;57.652;11.968;2023-05-21T03:20:27;6.87;;;4.60;;
11006;SDS011;8186;57.652;11.968;2023-05-21T03:22:56;5.33;;;4.50;;
11006;SDS011;8186;57.652;11.968;2023-05-21T03:25:24;5.73;;;4.43;;
11006;SDS011;8186;57.652;11.968;2023-05-21T03:27:51;5.20;;;4.67;;
11006;SDS011;8186;57.652;11.968;2023-05-21T03:30:18;6.47;;;4.37;;
11006;SDS011;8186;57.652;11.968;2023-05-21T03:32:45;5.80;;;4.70;;
11006;SDS011;8186;57.652;11.968;2023-05-21T03:35:13;5.60;;;4.63;;
11006;SDS011;8186;57.652;11.968;2023-05-21T03:37:40;4.40;;;3.90;;
11006;SDS011;8186;57.652;11.968;2023-05-21T03:40:09;5.07;;;4.30;;
11006;SDS011;8186;57.652;11.968;2023-05-21T03:42:37;6.47;;;4.90;;
11006;SDS011;8186;57.652;11.968;2023-05-21T03:45:05;4.97;;;4.20;;
11006;SDS011;8186;57.652;11.968;2023-05-21T03:47:33;5.10;;;4.60;;
11006;SDS011;8186;57.652;11.968;2023-05-21T03:50:00;6.33;;;4.30;;
11006;SDS011;8186;57.652;11.968;2023-05-21T03:52:28;4.87;;;4.47;;
11006;SDS011;8186;57.652;11.968;2023-05-21T03:54:55;6.60;;;4.20;;
11006;SDS011;8186;57.652;11.968;2023-05-21T03:57:23;5.03;;;4.37;;
11006;SDS011;8186;57.652;11.968;2023-05-21T03:59:50;5.27;;;4.23;;
11006;SDS011;8186;57.652;11.968;2023-05-21T04:02:17;4.60;;;4.20;;
11006;SDS011;8186;57.652;11.968;2023-05-21T04:04:44;5.23;;;4.03;;
11006;SDS011;8186;57.652;11.968;2023-05-21T04:07:11;5.13;;;3.73;;
11006;SDS011;8186;57.652;11.968;2023-05-21T04:09:40;4.53;;;4.13;;
11006;SDS011;8186;57.652;11.968;2023-05-21T04:12:10;6.57;;;4.07;;
11006;SDS011;8186;57.652;11.968;2023-05-21T04:14:39;6.03;;;4.00;;
11006;SDS011;8186;57.652;11.968;2023-05-21T04:17:06;5.10;;;4.00;;
11006;SDS011;8186;57.652;11.968;2023-05-21T04:19:33;4.67;;;4.00;;
11006;SDS011;8186;57.652;11.968;2023-05-21T04:22:01;5.70;;;4.00;;
11006;SDS011;8186;57.652;11.968;2023-05-21T04:24:28;4.70;;;3.57;;
11006;SDS011;8186;57.652;11.968;2023-05-21T04:26:56;5.43;;;3.80;;
11006;SDS011;8186;57.652;11.968;2023-05-21T04:29:25;4.50;;;4.00;;
11006;SDS011;8186;57.652;11.968;2023-05-21T04:31:55;4.23;;;3.67;;
11006;SDS011;8186;57.652;11.968;2023-05-21T04:34:22;6.20;;;4.27;;
11006;SDS011;8186;57.652;11.968;2023-05-21T04:36:49;4.60;;;3.77;;
11006;SDS011;8186;57.652;11.968;2023-05-21T04:39:18;6.03;;;4.10;;
11006;SDS011;8186;57.652;11.968;2023-05-21T04:41:45;4.63;;;3.60;;
11006;SDS011;8186;57.652;11.968;2023-05-21T04:44:12;5.17;;;3.93;;
11006;SDS011;8186;57.652;11.968;2023-05-21T04:46:40;5.00;;;3.53;;
11006;SDS011;8186;57.652;11.968;2023-05-21T04:49:11;4.77;;;3.33;;
11006;SDS011;8186;57.652;11.968;2023-05-21T04:51:40;4.07;;;3.53;;
11006;SDS011;8186;57.652;11.968;2023-05-21T04:54:07;3.67;;;3.27;;
11006;SDS011;8186;57.652;11.968;2023-05-21T04:56:35;5.30;;;3.63;;
11006;SDS011;8186;57.652;11.968;2023-05-21T04:59:01;6.23;;;3.27;;
11006;SDS011;8186;57.652;11.968;2023-05-21T05:01:31;4.90;;;3.40;;
11006;SDS011;8186;57.652;11.968;2023-05-21T05:03:59;4.40;;;3.20;;
11006;SDS011;8186;57.652;11.968;2023-05-21T05:06:27;3.87;;;2.93;;
11006;SDS011;8186;57.652;11.968;2023-05-21T05:08:55;3.77;;;3.30;;
11006;SDS011;8186;57.652;11.968;2023-05-21T05:11:22;3.90;;;3.50;;
11006;SDS011;8186;57.652;11.968;2023-05-21T05:13:50;6.47;;;3.17;;
11006;SDS011;8186;57.652;11.968;2023-05-21T05:16:18;4.03;;;3.10;;
11006;SDS011;8186;57.652;11.968;2023-05-21T05:18:49;4.60;;;2.67;;
11006;SDS011;8186;57.652;11.968;2023-05-21T05:21:17;4.83;;;2.67;;
11006;SDS011;8186;57.652;11.968;2023-05-21T05:23:45;6.03;;;2.83;;
11006;SDS011;8186;57.652;11.968;2023-05-21T05:26:12;3.20;;;2.90;;
11006;SDS011;8186;57.652;11.968;2023-05-21T05:28:40;3.97;;;2.83;;
11006;SDS011;8186;57.652;11.968;2023-05-21T05:31:07;3.87;;;2.80;;
11006;SDS011;8186;57.652;11.968;2023-05-21T05:33:34;4.00;;;3.00;;
11006;SDS011;8186;57.652;11.968;2023-05-21T05:36:01;3.47;;;2.60;;
11006;SDS011;8186;57.652;11.968;2023-05-21T05:38:28;3.77;;;2.67;;
11006;SDS011;8186;57.652;11.968;2023-05-21T05:40:56;2.83;;;2.17;;
11006;SDS011;8186;57.652;11.968;2023-05-21T05:43:24;4.17;;;2.83;;
11006;SDS011;8186;57.652;11.968;2023-05-21T05:45:51;4.13;;;2.73;;
11006;SDS011;8186;57.652;11.968;2023-05-21T05:48:18;5.33;;;2.63;;
11006;SDS011;8186;57.652;11.968;2023-05-21T05:50:46;4.63;;;2.40;;
11006;SDS011;8186;57.652;11.968;2023-05-21T05:53:14;4.30;;;2.70;;
11006;SDS011;8186;57.652;11.968;2023-05-21T05:55:41;3.30;;;2.47;;
11006;SDS011;8186;57.652;11.968;2023-05-21T05:58:09;3.83;;;2.23;;
11006;SDS011;8186;57.652;11.968;2023-05-21T06:00:36;3.30;;;2.10;;
11006;SDS011;8186;57.652;11.968;2023-05-21T06:03:03;4.20;;;2.30;;
11006;SDS011;8186;57.652;11.968;2023-05-21T06:05:30;4.73;;;2.10;;
11006;SDS011;8186;57.652;11.968;2023-05-21T06:07:57;4.70;;;2.47;;
11006;SDS011;8186;57.652;11.968;2023-05-21T06:10:24;4.53;;;2.13;;
11006;SDS011;8186;57.652;11.968;2023-05-21T06:12:51;2.83;;;2.40;;
11006;SDS011;8186;57.652;11.968;2023-05-21T06:15:20;3.40;;;2.57;;
11006;SDS011;8186;57.652;11.968;2023-05-21T06:17:47;4.37;;;2.60;;
11006;SDS011;8186;57.652;11.968;2023-05-21T06:20:14;3.40;;;2.03;;
11006;SDS011;8186;57.652;11.968;2023-05-21T06:22:41;2.53;;;2.33;;
11006;SDS011;8186;57.652;11.968;2023-05-21T06:25:08;2.30;;;2.10;;
11006;SDS011;8186;57.652;11.968;2023-05-21T06:27:36;5.20;;;1.90;;
11006;SDS011;8186;57.652;11.968;2023-05-21T06:30:03;2.33;;;1.90;;
11006;SDS011;8186;57.652;11.968;2023-05-21T06:32:32;2.90;;;2.00;;
11006;SDS011;8186;57.652;11.968;2023-05-21T06:35:00;3.27;;;2.47;;
11006;SDS011;8186;57.652;11.968;2023-05-21T06:37:27;4.63;;;1.93;;
11006;SDS011;8186;57.652;11.968;2023-05-21T06:39:53;3.10;;;2.30;;
11006;SDS011;8186;57.652;11.968;2023-05-21T06:42:20;3.97;;;1.83;;
11006;SDS011;8186;57.652;11.968;2023-05-21T06:44:47;4.40;;;1.83;;
11006;SDS011;8186;57.652;11.968;2023-05-21T06:47:14;2.27;;;1.83;;
11006;SDS011;8186;57.652;11.968;2023-05-21T06:49:43;2.60;;;2.10;;
11006;SDS011;8186;57.652;11.968;2023-05-21T06:52:10;2.13;;;1.63;;
11006;SDS011;8186;57.652;11.968;2023-05-21T06:54:37;2.43;;;1.80;;
11006;SDS011;8186;57.652;11.968;2023-05-21T06:57:04;5.70;;;1.80;;
11006;SDS011;8186;57.652;11.968;2023-05-21T06:59:31;5.73;;;2.17;;
11006;SDS011;8186;57.652;11.968;2023-05-21T07:01:58;5.60;;;2.10;;
11006;SDS011;8186;57.652;11.968;2023-05-21T07:04:25;1.90;;;1.70;;
11006;SDS011;8186;57.652;11.968;2023-05-21T07:06:53;6.90;;;1.80;;
11006;SDS011;8186;57.652;11.968;2023-05-21T07:09:20;1.67;;;1.47;;
11006;SDS011;8186;57.652;11.968;2023-05-21T07:11:47;2.03;;;1.80;;
11006;SDS011;8186;57.652;11.968;2023-05-21T07:14:14;2.00;;;1.70;;
11006;SDS011;8186;57.652;11.968;2023-05-21T07:16:41;3.17;;;1.70;;
11006;SDS011;8186;57.652;11.968;2023-05-21T07:19:10;3.83;;;1.60;;
11006;SDS011;8186;57.652;11.968;2023-05-21T07:21:37;2.83;;;1.60;;
11006;SDS011;8186;57.652;11.968;2023-05-21T07:24:06;4.23;;;1.83;;
11006;SDS011;8186;57.652;11.968;2023-05-21T07:26:33;3.27;;;1.77;;
11006;SDS011;8186;57.652;11.968;2023-05-21T07:29:00;4.20;;;1.80;;
11006;SDS011;8186;57.652;11.968;2023-05-21T07:31:27;3.80;;;1.57;;
11006;SDS011;8186;57.652;11.968;2023-05-21T07:33:56;3.30;;;1.83;;
11006;SDS011;8186;57.652;11.968;2023-05-21T07:36:23;2.03;;;1.50;;
11006;SDS011;8186;57.652;11.968;2023-05-21T07:38:51;2.15;;;1.65;;
11006;SDS011;8186;57.652;11.968;2023-05-21T07:41:20;1.93;;;1.53;;
11006;SDS011;8186;57.652;11.968;2023-05-21T07:43:47;3.83;;;1.77;;
11006;SDS011;8186;57.652;11.968;2023-05-21T07:46:14;3.83;;;1.63;;
11006;SDS011;8186;57.652;11.968;2023-05-21T07:48:41;5.13;;;1.92;;
11006;SDS011;8186;57.652;11.968;2023-05-21T07:51:08;3.42;;;1.65;;
11006;SDS011;8186;57.652;11.968;2023-05-21T07:53:36;3.88;;;1.83;;
11006;SDS011;8186;57.652;11.968;2023-05-21T07:56:03;4.10;;;1.70;;
11006;SDS011;8186;57.652;11.968;2023-05-21T07:58:32;3.08;;;1.90;;
11006;SDS011;8186;57.652;11.968;2023-05-21T08:00:59;4.22;;;1.80;;
11006;SDS011;8186;57.652;11.968;2023-05-21T08:03:27;2.38;;;1.80;;
11006;SDS011;8186;57.652;11.968;2023-05-21T08:05:55;4.57;;;2.17;;
11006;SDS011;8186;57.652;11.968;2023-05-21T08:08:22;2.65;;;1.60;;
11006;SDS011;8186;57.652;11.968;2023-05-21T08:10:49;2.22;;;1.48;;
11006;SDS011;8186;57.652;11.968;2023-05-21T08:13:16;2.70;;;1.88;;
11006;SDS011;8186;57.652;11.968;2023-05-21T08:15:45;2.15;;;1.85;;
11006;SDS011;8186;57.652;11.968;2023-05-21T08:18:12;3.13;;;1.92;;
11006;SDS011;8186;57.652;11.968;2023-05-21T08:20:39;3.22;;;1.90;;
11006;SDS011;8186;57.652;11.968;2023-05-21T08:23:06;3.15;;;1.88;;
11006;SDS011;8186;57.652;11.968;2023-05-21T08:25:33;2.63;;;1.50;;
11006;SDS011;8186;57.652;11.968;2023-05-21T08:28:00;3.40;;;1.75;;
11006;SDS011;8186;57.652;11.968;2023-05-21T08:30:27;3.85;;;1.88;;
11006;SDS011;8186;57.652;11.968;2023-05-21T08:32:56;2.53;;;1.80;;
11006;SDS011;8186;57.652;11.968;2023-05-21T08:35:23;2.53;;;2.10;;
11006;SDS011;8186;57.652;11.968;2023-05-21T08:37:50;6.13;;;2.25;;
11006;SDS011;8186;57.652;11.968;2023-05-21T08:40:17;3.72;;;2.53;;
11006;SDS011;8186;57.652;11.968;2023-05-21T08:42:45;5.75;;;2.25;;
11006;SDS011;8186;57.652;11.968;2023-05-21T08:45:14;1.70;;;1.55;;
11006;SDS011;8186;57.652;11.968;2023-05-21T08:47:45;2.25;;;2.05;;
11006;SDS011;8186;57.652;11.968;2023-05-21T08:50:15;3.72;;;2.13;;
11006;SDS011;8186;57.652;11.968;2023-05-21T08:52:43;3.67;;;2.40;;
11006;SDS011;8186;57.652;11.968;2023-05-21T08:55:10;3.08;;;2.05;;
11006;SDS011;8186;57.652;11.968;2023-05-21T08:57:37;2.20;;;1.90;;
11006;SDS011;8186;57.652;11.968;2023-05-21T09:00:08;2.38;;;2.00;;
11006;SDS011;8186;57.652;11.968;2023-05-21T09:02:36;2.95;;;1.95;;
11006;SDS011;8186;57.652;11.968;2023-05-21T09:05:08;4.95;;;2.42;;
11006;SDS011;8186;57.652;11.968;2023-05-21T09:07:38;4.28;;;2.22;;
11006;SDS011;8186;57.652;11.968;2023-05-21T09:10:11;6.55;;;2.50;;
11006;SDS011;8186;57.652;11.968;2023-05-21T09:12:38;5.35;;;2.60;;
11006;SDS011;8186;57.652;11.968;2023-05-21T09:15:06;2.83;;;2.00;;
11006;SDS011;8186;57.652;11.968;2023-05-21T09:17:33;3.85;;;2.13;;
11006;SDS011;8186;57.652;11.968;2023-05-21T09:20:05;3.10;;;2.38;;
11006;SDS011;8186;57.652;11.968;2023-05-21T09:22:35;5.90;;;2.50;;
11006;SDS011;8186;57.652;11.968;2023-05-21T09:25:05;5.05;;;2.60;;
11006;SDS011;8186;57.652;11.968;2023-05-21T09:27:33;3.90;;;2.70;;
11006;SDS011;8186;57.652;11.968;2023-05-21T09:30:00;4.57;;;2.50;;
11006;SDS011;8186;57.652;11.968;2023-05-21T09:32:27;5.43;;;2.75;;
11006;SDS011;8186;57.652;11.968;2023-05-21T09:34:54;3.63;;;2.60;;
11006;SDS011;8186;57.652;11.968;2023-05-21T09:37:21;5.82;;;3.08;;
11006;SDS011;8186;57.652;11.968;2023-05-21T09:39:48;4.75;;;2.90;;
11006;SDS011;8186;57.652;11.968;2023-05-21T09:42:16;4.53;;;3.10;;
11006;SDS011;8186;57.652;11.968;2023-05-21T09:44:46;5.28;;;2.75;;
11006;SDS011;8186;57.652;11.968;2023-05-21T09:47:17;6.82;;;3.40;;
11006;SDS011;8186;57.652;11.968;2023-05-21T09:49:45;7.35;;;2.97;;
11006;SDS011;8186;57.652;11.968;2023-05-21T09:52:12;4.68;;;3.08;;
11006;SDS011;8186;57.652;11.968;2023-05-21T09:54:39;5.82;;;3.70;;
11006;SDS011;8186;57.652;11.968;2023-05-21T09:57:06;3.65;;;3.30;;
11006;SDS011;8186;57.652;11.968;2023-05-21T09:59:37;5.30;;;2.90;;
11006;SDS011;8186;57.652;11.968;2023-05-21T10:02:14;3.50;;;3.00;;
11006;SDS011;8186;57.652;11.968;2023-05-21T10:04:42;11.82;;;2.88;;
11006;SDS011;8186;57.652;11.968;2023-05-21T10:07:10;4.03;;;2.80;;
11006;SDS011;8186;57.652;11.968;2023-05-21T10:09:38;4.43;;;2.97;;
11006;SDS011;8186;57.652;11.968;2023-05-21T10:12:07;3.83;;;2.88;;
11006;SDS011;8186;57.652;11.968;2023-05-21T10:14:35;4.75;;;2.38;;
11006;SDS011;8186;57.652;11.968;2023-05-21T10:17:04;3.90;;;3.22;;
11006;SDS011;8186;57.652;11.968;2023-05-21T10:19:31;3.97;;;3.20;;
11006;SDS011;8186;57.652;11.968;2023-05-21T10:22:00;5.18;;;3.00;;
11006;SDS011;8186;57.652;11.968;2023-05-21T10:24:28;5.35;;;2.90;;
11006;SDS011;8186;57.652;11.968;2023-05-21T10:26:55;4.82;;;2.90;;
11006;SDS011;8186;57.652;11.968;2023-05-21T10:29:22;2.92;;;2.72;;
11006;SDS011;8186;57.652;11.968;2023-05-21T10:31:50;5.07;;;2.72;;
11006;SDS011;8186;57.652;11.968;2023-05-21T10:34:19;6.75;;;2.70;;
11006;SDS011;8186;57.652;11.968;2023-05-21T10:36:47;4.13;;;2.58;;
11006;SDS011;8186;57.652;11.968;2023-05-21T10:39:14;7.50;;;2.92;;
11006;SDS011;8186;57.652;11.968;2023-05-21T10:41:44;4.88;;;2.75;;
11006;SDS011;8186;57.652;11.968;2023-05-21T10:44:16;4.28;;;2.70;;
11006;SDS011;8186;57.652;11.968;2023-05-21T10:47:00;3.00;;;2.70;;
11006;SDS011;8186;57.652;11.968;2023-05-21T10:49:44;5.78;;;3.10;;
11006;SDS011;8186;57.652;11.968;2023-05-21T10:52:22;4.32;;;3.05;;
11006;SDS011;8186;57.652;11.968;2023-05-21T10:54:58;4.45;;;2.60;;
11006;SDS011;8186;57.652;11.968;2023-05-21T10:57:42;4.20;;;2.50;;
11006;SDS011;8186;57.652;11.968;2023-05-21T11:00:16;5.95;;;3.05;;
11006;SDS011;8186;57.652;11.968;2023-05-21T11:02:44;3.88;;;3.45;;
11006;SDS011;8186;57.652;11.968;2023-05-21T11:05:13;3.17;;;2.75;;
11006;SDS011;8186;57.652;11.968;2023-05-21T11:07:49;6.57;;;2.95;;
11006;SDS011;8186;57.652;11.968;2023-05-21T11:13:13;3.00;;;2.50;;
11006;SDS011;8186;57.652;11.968;2023-05-21T11:21:32;2.83;;;2.53;;
11006;SDS011;8186;57.652;11.968;2023-05-21T11:24:09;3.22;;;2.85;;
11006;SDS011;8186;57.652;11.968;2023-05-21T11:29:35;4.72;;;2.45;;
11006;SDS011;8186;57.652;11.968;2023-05-21T11:32:09;3.35;;;2.47;;
11006;SDS011;8186;57.652;11.968;2023-05-21T11:34:40;4.18;;;2.72;;
11006;SDS011;8186;57.652;11.968;2023-05-21T11:37:25;2.78;;;2.45;;
11006;SDS011;8186;57.652;11.968;2023-05-21T11:39:57;2.88;;;2.58;;
11006;SDS011;8186;57.652;11.968;2023-05-21T11:42:42;4.75;;;2.65;;
11006;SDS011;8186;57.652;11.968;2023-05-21T11:45:09;4.47;;;2.42;;
11006;SDS011;8186;57.652;11.968;2023-05-21T11:47:38;2.67;;;2.47;;
11006;SDS011;8186;57.652;11.968;2023-05-21T11:50:07;3.25;;;2.28;;
11006;SDS011;8186;57.652;11.968;2023-05-21T11:52:39;4.72;;;2.20;;
11006;SDS011;8186;57.652;11.968;2023-05-21T11:55:06;3.55;;;2.13;;
11006;SDS011;8186;57.652;11.968;2023-05-21T11:57:35;3.00;;;2.22;;
11006;SDS011;8186;57.652;11.968;2023-05-21T12:00:03;2.78;;;2.50;;
11006;SDS011;8186;57.652;11.968;2023-05-21T12:02:37;4.50;;;2.20;;
11006;SDS011;8186;57.652;11.968;2023-05-21T12:05:07;3.95;;;2.33;;
11006;SDS011;8186;57.652;11.968;2023-05-21T12:07:34;3.00;;;2.33;;
11006;SDS011;8186;57.652;11.968;2023-05-21T12:10:04;3.65;;;1.95;;
11006;SDS011;8186;57.652;11.968;2023-05-21T12:12:32;3.28;;;2.30;;
11006;SDS011;8186;57.652;11.968;2023-05-21T12:14:59;2.58;;;2.17;;
11006;SDS011;8186;57.652;11.968;2023-05-21T12:17:26;4.53;;;2.45;;
11006;SDS011;8186;57.652;11.968;2023-05-21T12:19:55;5.10;;;2.35;;
11006;SDS011;8186;57.652;11.968;2023-05-21T12:22:23;6.75;;;2.78;;
11006;SDS011;8186;57.652;11.968;2023-05-21T12:24:52;4.70;;;2.50;;
11006;SDS011;8186;57.652;11.968;2023-05-21T12:27:28;4.07;;;2.53;;
11006;SDS011;8186;57.652;11.968;2023-05-21T12:29:55;3.55;;;2.65;;
11006;SDS011;8186;57.652;11.968;2023-05-21T12:32:22;4.18;;;2.58;;
11006;SDS011;8186;57.652;11.968;2023-05-21T12:34:53;5.28;;;2.58;;
11006;SDS011;8186;57.652;11.968;2023-05-21T12:37:22;4.75;;;2.40;;
11006;SDS011;8186;57.652;11.968;2023-05-21T12:39:51;2.67;;;2.40;;
11006;SDS011;8186;57.652;11.968;2023-05-21T12:42:23;4.75;;;2.45;;
11006;SDS011;8186;57.652;11.968;2023-05-21T12:44:52;2.72;;;2.35;;
11006;SDS011;8186;57.652;11.968;2023-05-21T12:47:21;2.80;;;2.10;;
11006;SDS011;8186;57.652;11.968;2023-05-21T12:49:49;2.60;;;2.40;;
11006;SDS011;8186;57.652;11.968;2023-05-21T12:52:20;3.47;;;2.80;;
11006;SDS011;8186;57.652;11.968;2023-05-21T12:54:48;4.85;;;2.22;;
11006;SDS011;8186;57.652;11.968;2023-05-21T12:57:16;6.32;;;2.60;;
11006;SDS011;8186;57.652;11.968;2023-05-21T12:59:52;6.20;;;2.40;;
11006;SDS011;8186;57.652;11.968;2023-05-21T13:02:21;2.78;;;2.22;;
11006;SDS011;8186;57.652;11.968;2023-05-21T13:04:53;2.63;;;2.33;;
11006;SDS011;8186;57.652;11.968;2023-05-21T13:07:21;3.20;;;2.08;;
11006;SDS011;8186;57.652;11.968;2023-05-21T13:09:48;7.97;;;3.10;;
11006;SDS011;8186;57.652;11.968;2023-05-21T13:12:17;2.95;;;2.08;;
11006;SDS011;8186;57.652;11.968;2023-05-21T13:14:45;2.65;;;2.40;;
11006;SDS011;8186;57.652;11.968;2023-05-21T13:17:14;4.28;;;2.40;;
11006;SDS011;8186;57.652;11.968;2023-05-21T13:19:41;3.75;;;2.40;;
11006;SDS011;8186;57.652;11.968;2023-05-21T13:22:07;3.08;;;2.47;;
11006;SDS011;8186;57.652;11.968;2023-05-21T13:24:35;3.45;;;2.28;;
11006;SDS011;8186;57.652;11.968;2023-05-21T13:27:04;3.55;;;2.15;;
11006;SDS011;8186;57.652;11.968;2023-05-21T13:29:33;4.47;;;2.40;;
11006;SDS011;8186;57.652;11.968;2023-05-21T13:32:02;4.20;;;2.30;;
11006;SDS011;8186;57.652;11.968;2023-05-21T13:34:31;3.33;;;2.40;;
11006;SDS011;8186;57.652;11.968;2023-05-21T13:36:58;5.80;;;2.40;;
11006;SDS011;8186;57.652;11.968;2023-05-21T13:39:25;2.42;;;2.22;;
11006;SDS011;8186;57.652;11.968;2023-05-21T13:41:52;2.65;;;2.45;;
11006;SDS011;8186;57.652;11.968;2023-05-21T13:44:19;2.58;;;2.13;;
11006;SDS011;8186;57.652;11.968;2023-05-21T13:46:46;3.45;;;2.40;;
11006;SDS011;8186;57.652;11.968;2023-05-21T13:49:13;4.55;;;2.30;;
11006;SDS011;8186;57.652;11.968;2023-05-21T13:51:42;4.18;;;2.38;;
11006;SDS011;8186;57.652;11.968;2023-05-21T13:54:09;4.75;;;2.53;;
11006;SDS011;8186;57.652;11.968;2023-05-21T13:56:36;5.72;;;2.20;;
11006;SDS011;8186;57.652;11.968;2023-05-21T13:59:03;4.55;;;2.55;;
11006;SDS011;8186;57.652;11.968;2023-05-21T14:01:30;2.78;;;2.58;;
11006;SDS011;8186;57.652;11.968;2023-05-21T14:03:57;3.50;;;2.33;;
11006;SDS011;8186;57.652;11.968;2023-05-21T14:06:28;10.20;;;2.80;;
11006;SDS011;8186;57.652;11.968;2023-05-21T14:08:58;5.60;;;2.47;;
11006;SDS011;8186;57.652;11.968;2023-05-21T14:11:26;4.03;;;2.42;;
11006;SDS011;8186;57.652;11.968;2023-05-21T14:13:53;3.28;;;2.33;;
11006;SDS011;8186;57.652;11.968;2023-05-21T14:16:20;7.38;;;2.88;;
11006;SDS011;8186;57.652;11.968;2023-05-21T14:18:49;3.78;;;2.30;;
11006;SDS011;8186;57.652;11.968;2023-05-21T14:21:16;3.28;;;2.22;;
11006;SDS011;8186;57.652;11.968;2023-05-21T14:23:43;3.78;;;2.28;;
11006;SDS011;8186;57.652;11.968;2023-05-21T14:26:12;3.70;;;2.30;;
11006;SDS011;8186;57.652;11.968;2023-05-21T14:28:38;2.63;;;2.40;;
11006;SDS011;8186;57.652;11.968;2023-05-21T14:31:05;6.20;;;3.03;;
11006;SDS011;8186;57.652;11.968;2023-05-21T14:33:34;4.50;;;2.20;;
11006;SDS011;8186;57.652;11.968;2023-05-21T14:36:01;2.67;;;2.20;;
11006;SDS011;8186;57.652;11.968;2023-05-21T14:38:29;3.05;;;2.65;;
11006;SDS011;8186;57.652;11.968;2023-05-21T14:40:56;2.65;;;2.15;;
11006;SDS011;8186;57.652;11.968;2023-05-21T14:43:24;4.53;;;2.40;;
11006;SDS011;8186;57.652;11.968;2023-05-21T14:45:51;4.50;;;2.78;;
11006;SDS011;8186;57.652;11.968;2023-05-21T14:48:18;2.38;;;2.15;;
11006;SDS011;8186;57.652;11.968;2023-05-21T14:50:47;2.83;;;2.50;;
11006;SDS011;8186;57.652;11.968;2023-05-21T14:53:15;6.38;;;2.28;;
11006;SDS011;8186;57.652;11.968;2023-05-21T14:55:43;3.08;;;2.13;;
11006;SDS011;8186;57.652;11.968;2023-05-21T14:58:10;2.78;;;2.05;;
11006;SDS011;8186;57.652;11.968;2023-05-21T15:00:39;3.58;;;2.20;;
11006;SDS011;8186;57.652;11.968;2023-05-21T15:03:06;4.03;;;2.30;;
11006;SDS011;8186;57.652;11.968;2023-05-21T15:05:33;3.65;;;2.20;;